La Florida Airport
SCSE : now visible

Airfield :











YOU CAN JOIN US ON...

 
LOGIN :

Register | Disclaimer

   EN    FR    IT 

 









Legend :    VFR   Marginal VFR   IFR   Intensive IFR   Very Intensive IFR
Visi :
Ceiling :
>= 8 km
>= 3000ft
5 to 8 km
1000 to 3000 ft
1500m to 5 km
500 to 1000 ft
800 to 1500m
200 to 500 ft
< 800m
< 200 ft
Symbols :   Thunderstorms  Fog  Heavy snow  Heavy precipitations  Wind > 20 kt






- Airport Elevation : 481 ft
- IATA code : LSC


SCSE - La Florida

CURRENT METAR :
  • 240300Z AUTO 33003KT 270V040 9999 OVC009/// 12/10 Q1016

EXPIRED METARs :
  • 240200Z AUTO 29004KT 9999 OVC009/// 12/10 Q1017
  • 240100Z AUTO 30003KT 9999 OVC010/// 12/10 Q1016

TAF TAF SCSE
Valid from the 24 at 00:00 until the 25 at 00:00 UTC


232210Z 2400/2424 30004KT 9999 SCT010 BKN016 TX15/2419Z TN10/2411Z
TEMPO 2406/2412 11004KT 6000 BKN007 OVC012
BECMG 2414/2416 28008KT SCT012 BKN020
BECMG 2418/2420 SCT020
SCEZ FIR / South America



MET'MAP, your aeronautical weather chart ! - Copyright ORBIFLY December 2007 - Disclaimer

ORBIFLY MET'MAP TEAM :

Programming & Development : Alexandra Zaïnal
Concept & original design : Baudouin d'Aumeries
Assistance for programming : Marc-Olivier Méhu
Technical & hardware support : Manuel Goepfert

Contact : metmap@orbifly.com




SOURCES & CREDITS :

   NOAA       Earth
Advisory